sensor_id;sensor_type;location;lat;lon;timestamp;P1;durP1;ratioP1;P2;durP2;ratioP2
4704;SDS011;2366;51.332;6.610;2023-11-21T00:02:24;23.90;;;14.07;;
4704;SDS011;2366;51.332;6.610;2023-11-21T00:04:50;19.47;;;15.13;;
4704;SDS011;2366;51.332;6.610;2023-11-21T00:07:16;20.80;;;14.37;;
4704;SDS011;2366;51.332;6.610;2023-11-21T00:09:41;31.37;;;16.30;;
4704;SDS011;2366;51.332;6.610;2023-11-21T00:12:07;25.60;;;14.83;;
4704;SDS011;2366;51.332;6.610;2023-11-21T00:14:36;28.77;;;14.18;;
4704;SDS011;2366;51.332;6.610;2023-11-21T00:17:03;17.77;;;12.32;;
4704;SDS011;2366;51.332;6.610;2023-11-21T00:19:29;21.63;;;14.23;;
4704;SDS011;2366;51.332;6.610;2023-11-21T00:21:54;18.80;;;12.50;;
4704;SDS011;2366;51.332;6.610;2023-11-21T00:24:19;25.93;;;14.23;;
4704;SDS011;2366;51.332;6.610;2023-11-21T00:26:45;32.40;;;14.10;;
4704;SDS011;2366;51.332;6.610;2023-11-21T00:29:12;26.10;;;14.52;;
4704;SDS011;2366;51.332;6.610;2023-11-21T00:31:37;25.70;;;14.25;;
4704;SDS011;2366;51.332;6.610;2023-11-21T00:34:03;18.23;;;13.60;;
4704;SDS011;2366;51.332;6.610;2023-11-21T00:36:30;18.95;;;13.07;;
4704;SDS011;2366;51.332;6.610;2023-11-21T00:38:56;21.30;;;14.15;;
4704;SDS011;2366;51.332;6.610;2023-11-21T00:41:22;20.53;;;13.43;;
4704;SDS011;2366;51.332;6.610;2023-11-21T00:43:47;24.00;;;14.50;;
4704;SDS011;2366;51.332;6.610;2023-11-21T00:46:13;27.40;;;14.50;;
4704;SDS011;2366;51.332;6.610;2023-11-21T00:48:38;27.00;;;13.93;;
4704;SDS011;2366;51.332;6.610;2023-11-21T00:51:04;21.60;;;14.83;;
4704;SDS011;2366;51.332;6.610;2023-11-21T00:53:31;23.77;;;13.55;;
4704;SDS011;2366;51.332;6.610;2023-11-21T00:55:56;25.13;;;12.80;;
4704;SDS011;2366;51.332;6.610;2023-11-21T00:58:25;24.60;;;14.23;;
4704;SDS011;2366;51.332;6.610;2023-11-21T01:00:51;26.05;;;13.63;;
4704;SDS011;2366;51.332;6.610;2023-11-21T01:03:17;25.87;;;14.53;;
4704;SDS011;2366;51.332;6.610;2023-11-21T01:05:42;18.90;;;13.10;;
4704;SDS011;2366;51.332;6.610;2023-11-21T01:08:07;23.47;;;15.53;;
4704;SDS011;2366;51.332;6.610;2023-11-21T01:10:33;22.10;;;13.70;;
4704;SDS011;2366;51.332;6.610;2023-11-21T01:13:02;25.83;;;15.13;;
4704;SDS011;2366;51.332;6.610;2023-11-21T01:15:30;21.02;;;13.52;;
4704;SDS011;2366;51.332;6.610;2023-11-21T01:17:56;21.17;;;14.97;;
4704;SDS011;2366;51.332;6.610;2023-11-21T01:20:21;26.47;;;15.13;;
4704;SDS011;2366;51.332;6.610;2023-11-21T01:22:46;26.03;;;15.13;;
4704;SDS011;2366;51.332;6.610;2023-11-21T01:25:14;21.88;;;13.57;;
4704;SDS011;2366;51.332;6.610;2023-11-21T01:27:41;23.98;;;13.73;;
4704;SDS011;2366;51.332;6.610;2023-11-21T01:30:07;20.43;;;12.90;;
4704;SDS011;2366;51.332;6.610;2023-11-21T01:32:33;31.90;;;13.73;;
4704;SDS011;2366;51.332;6.610;2023-11-21T01:34:59;28.13;;;14.70;;
4704;SDS011;2366;51.332;6.610;2023-11-21T01:37:25;19.00;;;13.30;;
4704;SDS011;2366;51.332;6.610;2023-11-21T01:39:54;24.35;;;14.85;;
4704;SDS011;2366;51.332;6.610;2023-11-21T01:42:22;22.92;;;14.20;;
4704;SDS011;2366;51.332;6.610;2023-11-21T01:44:48;25.43;;;16.37;;
4704;SDS011;2366;51.332;6.610;2023-11-21T01:47:14;25.30;;;15.47;;
4704;SDS011;2366;51.332;6.610;2023-11-21T01:49:40;22.58;;;14.50;;
4704;SDS011;2366;51.332;6.610;2023-11-21T01:52:10;28.02;;;16.00;;
4704;SDS011;2366;51.332;6.610;2023-11-21T01:54:36;25.20;;;16.00;;
4704;SDS011;2366;51.332;6.610;2023-11-21T01:57:02;21.97;;;16.00;;
4704;SDS011;2366;51.332;6.610;2023-11-21T01:59:33;29.98;;;16.42;;
4704;SDS011;2366;51.332;6.610;2023-11-21T02:02:01;25.52;;;15.10;;
4704;SDS011;2366;51.332;6.610;2023-11-21T02:04:29;23.02;;;15.00;;
4704;SDS011;2366;51.332;6.610;2023-11-21T02:06:56;19.95;;;14.73;;
4704;SDS011;2366;51.332;6.610;2023-11-21T02:09:26;26.53;;;17.43;;
4704;SDS011;2366;51.332;6.610;2023-11-21T02:11:52;26.00;;;17.55;;
4704;SDS011;2366;51.332;6.610;2023-11-21T02:14:19;31.02;;;16.83;;
4704;SDS011;2366;51.332;6.610;2023-11-21T02:16:50;20.95;;;15.20;;
4704;SDS011;2366;51.332;6.610;2023-11-21T02:19:21;22.95;;;17.30;;
4704;SDS011;2366;51.332;6.610;2023-11-21T02:21:54;27.77;;;18.23;;
4704;SDS011;2366;51.332;6.610;2023-11-21T02:24:25;28.65;;;18.17;;
4704;SDS011;2366;51.332;6.610;2023-11-21T02:26:52;30.55;;;17.65;;
4704;SDS011;2366;51.332;6.610;2023-11-21T02:29:18;21.53;;;16.80;;
4704;SDS011;2366;51.332;6.610;2023-11-21T02:31:46;25.42;;;16.15;;
4704;SDS011;2366;51.332;6.610;2023-11-21T02:34:15;25.65;;;16.73;;
4704;SDS011;2366;51.332;6.610;2023-11-21T02:36:42;23.02;;;16.13;;
4704;SDS011;2366;51.332;6.610;2023-11-21T02:39:09;34.90;;;18.33;;
4704;SDS011;2366;51.332;6.610;2023-11-21T02:41:35;29.75;;;17.00;;
4704;SDS011;2366;51.332;6.610;2023-11-21T02:44:02;29.50;;;17.13;;
4704;SDS011;2366;51.332;6.610;2023-11-21T02:46:28;29.60;;;16.67;;
4704;SDS011;2366;51.332;6.610;2023-11-21T02:48:53;27.70;;;18.43;;
4704;SDS011;2366;51.332;6.610;2023-11-21T02:51:19;26.37;;;17.20;;
4704;SDS011;2366;51.332;6.610;2023-11-21T02:53:45;29.60;;;17.73;;
4704;SDS011;2366;51.332;6.610;2023-11-21T02:56:11;29.67;;;18.00;;
4704;SDS011;2366;51.332;6.610;2023-11-21T02:58:37;30.40;;;16.37;;
4704;SDS011;2366;51.332;6.610;2023-11-21T03:01:02;27.13;;;16.77;;
4704;SDS011;2366;51.332;6.610;2023-11-21T03:03:30;28.90;;;17.10;;
4704;SDS011;2366;51.332;6.610;2023-11-21T03:05:56;33.17;;;19.20;;
4704;SDS011;2366;51.332;6.610;2023-11-21T03:08:21;25.90;;;17.47;;
4704;SDS011;2366;51.332;6.610;2023-11-21T03:10:46;28.10;;;16.63;;
4704;SDS011;2366;51.332;6.610;2023-11-21T03:13:12;22.53;;;16.60;;
4704;SDS011;2366;51.332;6.610;2023-11-21T03:15:37;26.77;;;16.60;;
4704;SDS011;2366;51.332;6.610;2023-11-21T03:18:03;33.47;;;17.50;;
4704;SDS011;2366;51.332;6.610;2023-11-21T03:20:29;24.60;;;16.60;;
4704;SDS011;2366;51.332;6.610;2023-11-21T03:22:55;27.23;;;18.10;;
4704;SDS011;2366;51.332;6.610;2023-11-21T03:25:20;34.90;;;18.50;;
4704;SDS011;2366;51.332;6.610;2023-11-21T03:27:49;29.77;;;18.88;;
4704;SDS011;2366;51.332;6.610;2023-11-21T03:30:14;30.20;;;17.33;;
4704;SDS011;2366;51.332;6.610;2023-11-21T03:32:40;34.73;;;18.93;;
4704;SDS011;2366;51.332;6.610;2023-11-21T03:35:05;30.77;;;17.87;;
4704;SDS011;2366;51.332;6.610;2023-11-21T03:37:31;34.50;;;20.35;;
4704;SDS011;2366;51.332;6.610;2023-11-21T03:39:57;35.93;;;17.67;;
4704;SDS011;2366;51.332;6.610;2023-11-21T03:42:22;40.53;;;21.33;;
4704;SDS011;2366;51.332;6.610;2023-11-21T03:44:47;33.33;;;19.40;;
4704;SDS011;2366;51.332;6.610;2023-11-21T03:47:13;31.53;;;18.43;;
4704;SDS011;2366;51.332;6.610;2023-11-21T03:49:38;36.20;;;18.77;;
4704;SDS011;2366;51.332;6.610;2023-11-21T03:52:04;37.47;;;20.20;;
4704;SDS011;2366;51.332;6.610;2023-11-21T03:54:29;39.70;;;20.20;;
4704;SDS011;2366;51.332;6.610;2023-11-21T03:56:55;30.90;;;19.43;;
4704;SDS011;2366;51.332;6.610;2023-11-21T03:59:21;33.10;;;19.90;;
4704;SDS011;2366;51.332;6.610;2023-11-21T04:01:49;30.83;;;20.60;;
4704;SDS011;2366;51.332;6.610;2023-11-21T04:04:15;39.73;;;21.30;;
4704;SDS011;2366;51.332;6.610;2023-11-21T04:06:40;39.33;;;22.13;;
4704;SDS011;2366;51.332;6.610;2023-11-21T04:09:06;41.53;;;20.00;;
4704;SDS011;2366;51.332;6.610;2023-11-21T04:11:31;44.10;;;20.50;;
4704;SDS011;2366;51.332;6.610;2023-11-21T04:13:57;47.93;;;20.03;;
4704;SDS011;2366;51.332;6.610;2023-11-21T04:16:22;39.80;;;22.33;;
4704;SDS011;2366;51.332;6.610;2023-11-21T04:18:48;42.87;;;22.40;;
4704;SDS011;2366;51.332;6.610;2023-11-21T04:21:13;40.73;;;20.97;;
4704;SDS011;2366;51.332;6.610;2023-11-21T04:23:38;37.40;;;21.83;;
4704;SDS011;2366;51.332;6.610;2023-11-21T04:26:05;36.00;;;20.40;;
4704;SDS011;2366;51.332;6.610;2023-11-21T04:28:31;37.47;;;21.17;;
4704;SDS011;2366;51.332;6.610;2023-11-21T04:30:56;33.17;;;21.53;;
4704;SDS011;2366;51.332;6.610;2023-11-21T04:33:21;32.60;;;18.30;;
4704;SDS011;2366;51.332;6.610;2023-11-21T04:35:47;43.17;;;21.50;;
4704;SDS011;2366;51.332;6.610;2023-11-21T04:38:13;39.50;;;21.80;;
4704;SDS011;2366;51.332;6.610;2023-11-21T04:40:38;45.83;;;21.13;;
4704;SDS011;2366;51.332;6.610;2023-11-21T04:43:04;45.40;;;21.77;;
4704;SDS011;2366;51.332;6.610;2023-11-21T04:45:29;46.30;;;22.20;;
4704;SDS011;2366;51.332;6.610;2023-11-21T04:47:55;36.23;;;21.67;;
4704;SDS011;2366;51.332;6.610;2023-11-21T04:50:21;47.17;;;22.45;;
4704;SDS011;2366;51.332;6.610;2023-11-21T04:52:46;35.57;;;19.70;;
4704;SDS011;2366;51.332;6.610;2023-11-21T04:55:12;54.17;;;22.60;;
4704;SDS011;2366;51.332;6.610;2023-11-21T04:57:37;43.00;;;22.80;;
4704;SDS011;2366;51.332;6.610;2023-11-21T05:00:03;39.43;;;23.20;;
4704;SDS011;2366;51.332;6.610;2023-11-21T05:02:31;39.65;;;21.42;;
4704;SDS011;2366;51.332;6.610;2023-11-21T05:04:59;37.70;;;21.38;;
4704;SDS011;2366;51.332;6.610;2023-11-21T05:07:24;42.83;;;22.43;;
4704;SDS011;2366;51.332;6.610;2023-11-21T05:09:53;55.28;;;23.60;;
4704;SDS011;2366;51.332;6.610;2023-11-21T05:12:20;44.00;;;20.92;;
4704;SDS011;2366;51.332;6.610;2023-11-21T05:14:47;41.95;;;23.08;;
4704;SDS011;2366;51.332;6.610;2023-11-21T05:17:13;48.03;;;22.05;;
4704;SDS011;2366;51.332;6.610;2023-11-21T05:19:39;42.10;;;23.20;;
4704;SDS011;2366;51.332;6.610;2023-11-21T05:22:05;38.55;;;20.38;;
4704;SDS011;2366;51.332;6.610;2023-11-21T05:24:31;53.07;;;24.10;;
4704;SDS011;2366;51.332;6.610;2023-11-21T05:26:56;43.57;;;21.17;;
4704;SDS011;2366;51.332;6.610;2023-11-21T05:29:22;39.30;;;22.40;;
4704;SDS011;2366;51.332;6.610;2023-11-21T05:31:47;35.80;;;18.70;;
4704;SDS011;2366;51.332;6.610;2023-11-21T05:34:13;39.93;;;21.40;;
4704;SDS011;2366;51.332;6.610;2023-11-21T05:36:38;38.50;;;22.50;;
4704;SDS011;2366;51.332;6.610;2023-11-21T05:39:03;46.70;;;22.03;;
4704;SDS011;2366;51.332;6.610;2023-11-21T05:41:29;51.60;;;24.37;;
4704;SDS011;2366;51.332;6.610;2023-11-21T05:43:55;41.60;;;21.60;;
4704;SDS011;2366;51.332;6.610;2023-11-21T05:46:20;48.00;;;21.60;;
4704;SDS011;2366;51.332;6.610;2023-11-21T05:48:46;45.63;;;24.02;;
4704;SDS011;2366;51.332;6.610;2023-11-21T05:51:12;43.33;;;23.10;;
4704;SDS011;2366;51.332;6.610;2023-11-21T05:53:38;45.22;;;22.85;;
4704;SDS011;2366;51.332;6.610;2023-11-21T05:56:04;45.43;;;24.43;;
4704;SDS011;2366;51.332;6.610;2023-11-21T05:58:30;38.97;;;22.80;;
4704;SDS011;2366;51.332;6.610;2023-11-21T06:00:55;44.80;;;22.23;;
4704;SDS011;2366;51.332;6.610;2023-11-21T06:03:20;44.63;;;23.67;;
4704;SDS011;2366;51.332;6.610;2023-11-21T06:05:46;48.10;;;22.90;;
4704;SDS011;2366;51.332;6.610;2023-11-21T06:08:11;42.83;;;21.60;;
4704;SDS011;2366;51.332;6.610;2023-11-21T06:10:37;45.67;;;22.63;;
4704;SDS011;2366;51.332;6.610;2023-11-21T06:13:02;45.63;;;22.00;;
4704;SDS011;2366;51.332;6.610;2023-11-21T06:15:29;54.30;;;25.13;;
4704;SDS011;2366;51.332;6.610;2023-11-21T06:17:54;60.15;;;26.02;;
4704;SDS011;2366;51.332;6.610;2023-11-21T06:20:20;45.80;;;25.37;;
4704;SDS011;2366;51.332;6.610;2023-11-21T06:22:48;53.10;;;25.73;;
4704;SDS011;2366;51.332;6.610;2023-11-21T06:25:15;55.88;;;27.13;;
4704;SDS011;2366;51.332;6.610;2023-11-21T06:27:41;49.93;;;23.50;;
4704;SDS011;2366;51.332;6.610;2023-11-21T06:30:08;56.97;;;24.33;;
4704;SDS011;2366;51.332;6.610;2023-11-21T06:32:35;55.78;;;26.83;;
4704;SDS011;2366;51.332;6.610;2023-11-21T06:35:04;51.20;;;25.15;;
4704;SDS011;2366;51.332;6.610;2023-11-21T06:37:30;56.65;;;26.10;;
4704;SDS011;2366;51.332;6.610;2023-11-21T06:39:57;52.63;;;25.15;;
4704;SDS011;2366;51.332;6.610;2023-11-21T06:42:23;56.70;;;25.65;;
4704;SDS011;2366;51.332;6.610;2023-11-21T06:44:49;48.30;;;24.98;;
4704;SDS011;2366;51.332;6.610;2023-11-21T06:47:24;51.00;;;23.20;;
4704;SDS011;2366;51.332;6.610;2023-11-21T06:49:50;56.22;;;27.70;;
4704;SDS011;2366;51.332;6.610;2023-11-21T06:52:17;53.67;;;25.60;;
4704;SDS011;2366;51.332;6.610;2023-11-21T06:54:43;52.90;;;24.50;;
4704;SDS011;2366;51.332;6.610;2023-11-21T06:57:08;59.20;;;26.53;;
4704;SDS011;2366;51.332;6.610;2023-11-21T06:59:34;49.13;;;24.27;;
4704;SDS011;2366;51.332;6.610;2023-11-21T07:01:59;50.10;;;26.67;;
4704;SDS011;2366;51.332;6.610;2023-11-21T07:04:25;52.27;;;25.10;;
4704;SDS011;2366;51.332;6.610;2023-11-21T07:06:53;54.95;;;27.67;;
4704;SDS011;2366;51.332;6.610;2023-11-21T07:09:19;55.83;;;25.20;;
4704;SDS011;2366;51.332;6.610;2023-11-21T07:11:47;48.28;;;25.52;;
4704;SDS011;2366;51.332;6.610;2023-11-21T07:14:15;47.78;;;26.25;;
4704;SDS011;2366;51.332;6.610;2023-11-21T07:16:42;48.20;;;24.52;;
4704;SDS011;2366;51.332;6.610;2023-11-21T07:19:07;45.23;;;24.00;;
4704;SDS011;2366;51.332;6.610;2023-11-21T07:21:33;57.43;;;25.67;;
4704;SDS011;2366;51.332;6.610;2023-11-21T07:24:02;50.95;;;24.85;;
4704;SDS011;2366;51.332;6.610;2023-11-21T07:26:28;41.20;;;24.67;;
4704;SDS011;2366;51.332;6.610;2023-11-21T07:28:54;49.58;;;24.60;;
4704;SDS011;2366;51.332;6.610;2023-11-21T07:31:20;46.15;;;25.52;;
4704;SDS011;2366;51.332;6.610;2023-11-21T07:33:46;57.60;;;27.93;;
4704;SDS011;2366;51.332;6.610;2023-11-21T07:36:12;46.72;;;25.10;;
4704;SDS011;2366;51.332;6.610;2023-11-21T07:38:43;52.58;;;28.52;;
4704;SDS011;2366;51.332;6.610;2023-11-21T07:41:08;49.43;;;26.13;;
4704;SDS011;2366;51.332;6.610;2023-11-21T07:43:34;65.60;;;27.47;;
4704;SDS011;2366;51.332;6.610;2023-11-21T07:46:01;61.75;;;28.65;;
4704;SDS011;2366;51.332;6.610;2023-11-21T07:48:31;56.05;;;27.42;;
4704;SDS011;2366;51.332;6.610;2023-11-21T07:50:57;60.85;;;28.05;;
4704;SDS011;2366;51.332;6.610;2023-11-21T07:53:24;51.00;;;26.45;;
4704;SDS011;2366;51.332;6.610;2023-11-21T07:55:50;57.90;;;28.17;;
4704;SDS011;2366;51.332;6.610;2023-11-21T07:58:16;53.27;;;27.80;;
4704;SDS011;2366;51.332;6.610;2023-11-21T08:00:41;52.13;;;27.67;;
4704;SDS011;2366;51.332;6.610;2023-11-21T08:03:07;55.23;;;27.23;;
4704;SDS011;2366;51.332;6.610;2023-11-21T08:05:32;58.23;;;30.30;;
4704;SDS011;2366;51.332;6.610;2023-11-21T08:07:58;55.63;;;27.07;;
4704;SDS011;2366;51.332;6.610;2023-11-21T08:10:23;51.00;;;28.27;;
4704;SDS011;2366;51.332;6.610;2023-11-21T08:12:48;57.70;;;30.60;;
4704;SDS011;2366;51.332;6.610;2023-11-21T08:15:15;52.22;;;30.45;;
4704;SDS011;2366;51.332;6.610;2023-11-21T08:17:41;61.40;;;26.87;;
4704;SDS011;2366;51.332;6.610;2023-11-21T08:20:06;58.03;;;30.10;;
4704;SDS011;2366;51.332;6.610;2023-11-21T08:22:33;63.00;;;28.55;;
4704;SDS011;2366;51.332;6.610;2023-11-21T08:24:59;69.17;;;31.73;;
4704;SDS011;2366;51.332;6.610;2023-11-21T08:27:24;60.93;;;30.53;;
4704;SDS011;2366;51.332;6.610;2023-11-21T08:29:50;58.27;;;31.20;;
4704;SDS011;2366;51.332;6.610;2023-11-21T08:32:17;57.05;;;29.40;;
4704;SDS011;2366;51.332;6.610;2023-11-21T08:34:43;62.90;;;33.07;;
4704;SDS011;2366;51.332;6.610;2023-11-21T08:37:09;76.15;;;34.47;;
4704;SDS011;2366;51.332;6.610;2023-11-21T08:39:36;57.80;;;30.90;;
4704;SDS011;2366;51.332;6.610;2023-11-21T08:42:02;55.63;;;28.52;;
4704;SDS011;2366;51.332;6.610;2023-11-21T08:44:28;61.70;;;28.05;;
4704;SDS011;2366;51.332;6.610;2023-11-21T08:46:55;62.55;;;30.70;;
4704;SDS011;2366;51.332;6.610;2023-11-21T08:49:20;54.93;;;28.67;;
4704;SDS011;2366;51.332;6.610;2023-11-21T08:51:46;48.23;;;25.87;;
4704;SDS011;2366;51.332;6.610;2023-11-21T08:54:11;51.30;;;28.80;;
4704;SDS011;2366;51.332;6.610;2023-11-21T08:56:37;53.63;;;28.40;;
4704;SDS011;2366;51.332;6.610;2023-11-21T08:59:02;56.23;;;27.70;;
4704;SDS011;2366;51.332;6.610;2023-11-21T09:01:28;52.73;;;29.53;;
4704;SDS011;2366;51.332;6.610;2023-11-21T09:03:56;53.10;;;30.73;;
4704;SDS011;2366;51.332;6.610;2023-11-21T09:06:24;60.13;;;29.15;;
4704;SDS011;2366;51.332;6.610;2023-11-21T09:08:50;59.00;;;29.20;;
4704;SDS011;2366;51.332;6.610;2023-11-21T09:11:15;60.33;;;29.90;;
4704;SDS011;2366;51.332;6.610;2023-11-21T09:13:41;47.47;;;26.20;;
4704;SDS011;2366;51.332;6.610;2023-11-21T09:16:06;58.70;;;29.20;;
4704;SDS011;2366;51.332;6.610;2023-11-21T09:18:32;54.93;;;28.93;;
4704;SDS011;2366;51.332;6.610;2023-11-21T09:20:57;46.83;;;27.13;;
4704;SDS011;2366;51.332;6.610;2023-11-21T09:23:24;50.83;;;27.23;;
4704;SDS011;2366;51.332;6.610;2023-11-21T09:25:49;56.22;;;27.73;;
4704;SDS011;2366;51.332;6.610;2023-11-21T09:28:16;45.40;;;26.75;;
4704;SDS011;2366;51.332;6.610;2023-11-21T09:30:42;49.90;;;27.00;;
4704;SDS011;2366;51.332;6.610;2023-11-21T09:33:09;51.30;;;26.52;;
4704;SDS011;2366;51.332;6.610;2023-11-21T09:35:36;54.55;;;28.80;;
4704;SDS011;2366;51.332;6.610;2023-11-21T09:38:03;49.42;;;27.27;;
4704;SDS011;2366;51.332;6.610;2023-11-21T09:40:30;45.10;;;25.88;;
4704;SDS011;2366;51.332;6.610;2023-11-21T09:42:56;58.63;;;26.77;;
4704;SDS011;2366;51.332;6.610;2023-11-21T09:47:59;49.92;;;24.60;;
4704;SDS011;2366;51.332;6.610;2023-11-21T09:50:25;46.75;;;23.25;;
4704;SDS011;2366;51.332;6.610;2023-11-21T09:52:55;54.60;;;29.42;;
4704;SDS011;2366;51.332;6.610;2023-11-21T09:55:27;50.40;;;26.55;;
4704;SDS011;2366;51.332;6.610;2023-11-21T09:57:56;46.00;;;24.73;;
4704;SDS011;2366;51.332;6.610;2023-11-21T10:00:22;54.08;;;28.52;;
4704;SDS011;2366;51.332;6.610;2023-11-21T10:02:49;39.83;;;23.20;;
4704;SDS011;2366;51.332;6.610;2023-11-21T10:05:15;39.42;;;23.52;;
4704;SDS011;2366;51.332;6.610;2023-11-21T10:07:43;47.35;;;25.58;;
4704;SDS011;2366;51.332;6.610;2023-11-21T10:10:10;44.00;;;25.58;;
4704;SDS011;2366;51.332;6.610;2023-11-21T10:12:36;46.50;;;26.43;;
4704;SDS011;2366;51.332;6.610;2023-11-21T10:15:03;40.78;;;22.05;;
4704;SDS011;2366;51.332;6.610;2023-11-21T10:17:32;43.25;;;25.23;;
4704;SDS011;2366;51.332;6.610;2023-11-21T10:20:08;51.22;;;25.67;;
4704;SDS011;2366;51.332;6.610;2023-11-21T10:22:38;50.95;;;27.95;;
4704;SDS011;2366;51.332;6.610;2023-11-21T10:25:08;52.45;;;24.50;;
4704;SDS011;2366;51.332;6.610;2023-11-21T10:27:35;40.42;;;22.75;;
4704;SDS011;2366;51.332;6.610;2023-11-21T10:30:02;48.70;;;26.27;;
4704;SDS011;2366;51.332;6.610;2023-11-21T10:32:29;48.00;;;24.85;;
4704;SDS011;2366;51.332;6.610;2023-11-21T10:34:58;50.05;;;24.55;;
4704;SDS011;2366;51.332;6.610;2023-11-21T10:37:31;42.88;;;25.33;;
4704;SDS011;2366;51.332;6.610;2023-11-21T10:39:58;50.55;;;27.30;;
4704;SDS011;2366;51.332;6.610;2023-11-21T10:42:24;51.97;;;26.20;;
4704;SDS011;2366;51.332;6.610;2023-11-21T10:44:50;52.03;;;25.80;;
4704;SDS011;2366;51.332;6.610;2023-11-21T10:47:17;49.22;;;26.65;;
4704;SDS011;2366;51.332;6.610;2023-11-21T10:49:44;46.15;;;26.65;;
4704;SDS011;2366;51.332;6.610;2023-11-21T10:52:12;47.47;;;27.52;;
4704;SDS011;2366;51.332;6.610;2023-11-21T10:54:42;51.15;;;27.70;;
4704;SDS011;2366;51.332;6.610;2023-11-21T10:57:08;42.03;;;23.30;;
4704;SDS011;2366;51.332;6.610;2023-11-21T10:59:35;40.47;;;22.27;;
4704;SDS011;2366;51.332;6.610;2023-11-21T11:02:01;38.70;;;20.38;;
4704;SDS011;2366;51.332;6.610;2023-11-21T11:04:40;43.17;;;23.70;;
4704;SDS011;2366;51.332;6.610;2023-11-21T11:07:07;46.83;;;24.23;;
4704;SDS011;2366;51.332;6.610;2023-11-21T11:09:37;38.28;;;24.13;;
4704;SDS011;2366;51.332;6.610;2023-11-21T11:12:02;37.80;;;21.50;;
4704;SDS011;2366;51.332;6.610;2023-11-21T11:14:29;48.25;;;20.35;;
4704;SDS011;2366;51.332;6.610;2023-11-21T11:16:55;34.97;;;20.10;;
4704;SDS011;2366;51.332;6.610;2023-11-21T11:19:25;40.50;;;22.35;;
4704;SDS011;2366;51.332;6.610;2023-11-21T11:24:30;34.85;;;19.02;;
4704;SDS011;2366;51.332;6.610;2023-11-21T11:35:26;39.90;;;20.80;;
4704;SDS011;2366;51.332;6.610;2023-11-21T11:38:02;41.45;;;22.10;;
4704;SDS011;2366;51.332;6.610;2023-11-21T11:40:41;34.97;;;20.30;;
4704;SDS011;2366;51.332;6.610;2023-11-21T11:43:08;37.28;;;18.35;;
4704;SDS011;2366;51.332;6.610;2023-11-21T11:45:33;37.13;;;20.48;;
4704;SDS011;2366;51.332;6.610;2023-11-21T11:48:00;42.78;;;21.00;;
4704;SDS011;2366;51.332;6.610;2023-11-21T11:50:27;40.28;;;21.48;;
4704;SDS011;2366;51.332;6.610;2023-11-21T11:52:52;36.27;;;19.97;;
4704;SDS011;2366;51.332;6.610;2023-11-21T11:55:20;36.28;;;19.02;;
4704;SDS011;2366;51.332;6.610;2023-11-21T11:57:48;47.00;;;21.20;;
4704;SDS011;2366;51.332;6.610;2023-11-21T12:00:16;36.65;;;19.05;;
4704;SDS011;2366;51.332;6.610;2023-11-21T12:02:52;41.63;;;20.85;;
4704;SDS011;2366;51.332;6.610;2023-11-21T12:05:20;38.47;;;21.75;;
4704;SDS011;2366;51.332;6.610;2023-11-21T12:10:18;37.42;;;18.73;;
4704;SDS011;2366;51.332;6.610;2023-11-21T12:12:50;33.80;;;19.30;;
4704;SDS011;2366;51.332;6.610;2023-11-21T12:15:26;40.22;;;19.73;;
4704;SDS011;2366;51.332;6.610;2023-11-21T12:17:55;38.85;;;18.73;;
4704;SDS011;2366;51.332;6.610;2023-11-21T12:20:23;26.40;;;17.20;;
4704;SDS011;2366;51.332;6.610;2023-11-21T12:22:49;34.35;;;19.65;;
4704;SDS011;2366;51.332;6.610;2023-11-21T12:25:20;30.52;;;18.77;;
4704;SDS011;2366;51.332;6.610;2023-11-21T12:27:46;33.75;;;18.48;;
4704;SDS011;2366;51.332;6.610;2023-11-21T12:30:15;36.47;;;21.48;;
4704;SDS011;2366;51.332;6.610;2023-11-21T12:32:42;33.85;;;19.90;;
4704;SDS011;2366;51.332;6.610;2023-11-21T12:35:09;45.55;;;22.35;;
4704;SDS011;2366;51.332;6.610;2023-11-21T12:37:36;41.55;;;22.80;;
4704;SDS011;2366;51.332;6.610;2023-11-21T12:40:04;39.45;;;20.70;;
4704;SDS011;2366;51.332;6.610;2023-11-21T12:42:36;45.03;;;23.85;;
4704;SDS011;2366;51.332;6.610;2023-11-21T12:45:09;42.50;;;24.33;;
4704;SDS011;2366;51.332;6.610;2023-11-21T12:48:06;39.65;;;21.65;;
4704;SDS011;2366;51.332;6.610;2023-11-21T12:50:36;34.72;;;20.90;;
4704;SDS011;2366;51.332;6.610;2023-11-21T12:53:06;51.65;;;23.67;;
4704;SDS011;2366;51.332;6.610;2023-11-21T12:55:41;38.28;;;22.92;;
4704;SDS011;2366;51.332;6.610;2023-11-21T12:58:07;38.03;;;22.47;;
4704;SDS011;2366;51.332;6.610;2023-11-21T13:03:02;34.38;;;20.13;;
4704;SDS011;2366;51.332;6.610;2023-11-21T13:05:33;38.58;;;21.08;;
4704;SDS011;2366;51.332;6.610;2023-11-21T13:08:03;44.92;;;22.70;;
4704;SDS011;2366;51.332;6.610;2023-11-21T13:10:32;40.38;;;20.48;;
4704;SDS011;2366;51.332;6.610;2023-11-21T13:13:01;45.42;;;23.95;;
4704;SDS011;2366;51.332;6.610;2023-11-21T13:15:30;44.13;;;22.35;;
4704;SDS011;2366;51.332;6.610;2023-11-21T13:17:57;40.72;;;24.90;;
4704;SDS011;2366;51.332;6.610;2023-11-21T13:20:23;37.03;;;23.47;;
4704;SDS011;2366;51.332;6.610;2023-11-21T13:22:53;38.00;;;23.15;;
4704;SDS011;2366;51.332;6.610;2023-11-21T13:25:22;42.78;;;23.10;;
4704;SDS011;2366;51.332;6.610;2023-11-21T13:27:56;36.88;;;21.42;;
4704;SDS011;2366;51.332;6.610;2023-11-21T13:30:23;43.72;;;24.13;;
4704;SDS011;2366;51.332;6.610;2023-11-21T13:32:58;45.72;;;23.70;;
4704;SDS011;2366;51.332;6.610;2023-11-21T13:35:30;46.03;;;25.08;;
4704;SDS011;2366;51.332;6.610;2023-11-21T13:38:05;40.13;;;26.13;;
4704;SDS011;2366;51.332;6.610;2023-11-21T13:40:32;48.70;;;23.83;;
4704;SDS011;2366;51.332;6.610;2023-11-21T13:43:04;43.25;;;24.42;;
4704;SDS011;2366;51.332;6.610;2023-11-21T13:45:34;50.60;;;25.00;;
4704;SDS011;2366;51.332;6.610;2023-11-21T13:48:04;45.30;;;23.70;;
4704;SDS011;2366;51.332;6.610;2023-11-21T13:50:35;46.63;;;27.58;;
4704;SDS011;2366;51.332;6.610;2023-11-21T13:53:01;54.03;;;25.47;;
4704;SDS011;2366;51.332;6.610;2023-11-21T13:55:33;47.63;;;25.38;;
4704;SDS011;2366;51.332;6.610;2023-11-21T13:58:00;45.95;;;25.77;;
4704;SDS011;2366;51.332;6.610;2023-11-21T14:00:29;55.72;;;28.25;;
4704;SDS011;2366;51.332;6.610;2023-11-21T14:03:10;52.83;;;28.38;;
4704;SDS011;2366;51.332;6.610;2023-11-21T14:05:43;62.95;;;29.40;;
4704;SDS011;2366;51.332;6.610;2023-11-21T14:08:12;74.50;;;31.60;;
4704;SDS011;2366;51.332;6.610;2023-11-21T14:10:41;75.72;;;28.40;;
4704;SDS011;2366;51.332;6.610;2023-11-21T14:13:14;81.15;;;32.60;;
4704;SDS011;2366;51.332;6.610;2023-11-21T14:15:41;80.50;;;28.13;;
4704;SDS011;2366;51.332;6.610;2023-11-21T14:18:10;103.75;;;32.30;;
4704;SDS011;2366;51.332;6.610;2023-11-21T14:20:39;105.90;;;33.20;;
4704;SDS011;2366;51.332;6.610;2023-11-21T14:23:05;123.55;;;33.88;;
4704;SDS011;2366;51.332;6.610;2023-11-21T14:25:35;110.80;;;30.27;;
4704;SDS011;2366;51.332;6.610;2023-11-21T14:28:07;103.10;;;27.63;;
4704;SDS011;2366;51.332;6.610;2023-11-21T14:30:32;92.37;;;24.87;;
4704;SDS011;2366;51.332;6.610;2023-11-21T14:33:00;64.80;;;23.13;;
4704;SDS011;2366;51.332;6.610;2023-11-21T14:35:26;74.05;;;22.42;;
4704;SDS011;2366;51.332;6.610;2023-11-21T14:37:52;75.03;;;24.87;;
4704;SDS011;2366;51.332;6.610;2023-11-21T14:40:18;52.80;;;20.80;;
4704;SDS011;2366;51.332;6.610;2023-11-21T14:42:49;77.55;;;22.55;;
4704;SDS011;2366;51.332;6.610;2023-11-21T14:45:18;70.32;;;24.50;;
4704;SDS011;2366;51.332;6.610;2023-11-21T14:47:45;75.38;;;27.13;;
4704;SDS011;2366;51.332;6.610;2023-11-21T14:50:23;89.38;;;28.77;;
4704;SDS011;2366;51.332;6.610;2023-11-21T14:53:11;108.70;;;31.60;;
4704;SDS011;2366;51.332;6.610;2023-11-21T14:55:38;121.15;;;31.33;;
4704;SDS011;2366;51.332;6.610;2023-11-21T14:58:17;107.53;;;31.42;;
4704;SDS011;2366;51.332;6.610;2023-11-21T15:00:52;96.15;;;29.17;;
4704;SDS011;2366;51.332;6.610;2023-11-21T15:03:25;100.38;;;30.45;;
4704;SDS011;2366;51.332;6.610;2023-11-21T15:06:08;101.03;;;31.88;;
4704;SDS011;2366;51.332;6.610;2023-11-21T15:08:55;96.70;;;27.92;;